createdAt,value
2022-10-13T00:01:21.171Z,67.30
2022-10-13T00:03:49.658Z,116.30
2022-10-13T00:06:26.305Z,72.20
2022-10-13T00:08:54.689Z,46.10
2022-10-13T00:11:26.962Z,41.30
2022-10-13T00:13:58.782Z,38.70
2022-10-13T00:16:30.786Z,41.10
2022-10-13T00:18:58.994Z,47.50
2022-10-13T00:21:28.369Z,41.70
2022-10-13T00:23:56.855Z,42.00
2022-10-13T00:26:26.713Z,37.80
2022-10-13T00:28:56.214Z,43.90
2022-10-13T00:31:29.113Z,45.20
2022-10-13T00:33:59.662Z,39.60
2022-10-13T00:36:29.114Z,39.30
2022-10-13T00:38:58.408Z,35.00
2022-10-13T00:41:27.077Z,45.00
2022-10-13T00:44:06.179Z,38.20
2022-10-13T00:46:37.518Z,41.30
2022-10-13T00:49:11.674Z,43.00
2022-10-13T00:51:46.501Z,41.00
2022-10-13T00:54:20.331Z,40.90
2022-10-13T00:56:50.629Z,41.20
2022-10-13T00:59:27.387Z,42.20
2022-10-13T01:01:59.179Z,40.30
2022-10-13T01:04:34.448Z,36.70
2022-10-13T01:07:04.530Z,41.20
2022-10-13T01:09:37.630Z,47.80
2022-10-13T01:12:50.450Z,43.30
2022-10-13T01:15:39.704Z,40.20
2022-10-13T01:18:47.328Z,44.20
2022-10-13T01:21:32.622Z,38.50
2022-10-13T01:24:37.748Z,45.50
2022-10-13T01:27:34.122Z,58.20
2022-10-13T01:30:22.977Z,43.90
2022-10-13T01:33:06.008Z,47.40
2022-10-13T01:36:06.914Z,40.30
2022-10-13T01:38:57.139Z,46.30
2022-10-13T01:41:35.389Z,39.40
2022-10-13T01:44:16.270Z,41.20
2022-10-13T01:46:52.151Z,40.80
2022-10-13T01:49:26.689Z,42.30
2022-10-13T01:51:59.528Z,49.50
2022-10-13T01:54:27.174Z,40.10
2022-10-13T01:56:56.899Z,43.20
2022-10-13T01:59:28.815Z,40.60
2022-10-13T02:02:20.788Z,46.10
2022-10-13T02:05:10.933Z,44.80
2022-10-13T02:07:48.924Z,46.40
2022-10-13T02:10:34.247Z,49.90
2022-10-13T02:13:05.885Z,46.90
2022-10-13T02:15:47.874Z,47.50
2022-10-13T02:18:20.045Z,41.80
2022-10-13T02:20:47.971Z,47.90
2022-10-13T02:23:18.318Z,54.60
2022-10-13T02:25:47.609Z,46.70
2022-10-13T02:28:16.653Z,44.00
2022-10-13T02:30:46.239Z,49.60
2022-10-13T02:33:15.835Z,51.10
2022-10-13T02:35:44.010Z,50.20
2022-10-13T02:38:13.021Z,47.70
2022-10-13T02:40:40.851Z,49.60
2022-10-13T02:43:08.538Z,52.10
2022-10-13T02:45:36.293Z,53.30
2022-10-13T02:48:04.129Z,52.00
2022-10-13T02:50:32.013Z,48.80
2022-10-13T02:52:59.661Z,51.50
2022-10-13T02:55:27.477Z,48.70
2022-10-13T02:57:57.475Z,50.90
2022-10-13T03:00:26.144Z,49.70
2022-10-13T03:02:54.234Z,48.40
2022-10-13T03:05:22.284Z,50.40
2022-10-13T03:07:50.087Z,47.70
2022-10-13T03:10:18.025Z,44.90
2022-10-13T03:12:45.723Z,46.30
2022-10-13T03:15:13.469Z,50.30
2022-10-13T03:17:41.188Z,48.30
2022-10-13T03:20:09.834Z,50.20
2022-10-13T03:22:37.462Z,51.60
2022-10-13T03:25:05.916Z,51.40
2022-10-13T03:27:33.789Z,47.40
2022-10-13T03:30:02.241Z,47.30
2022-10-13T03:32:31.562Z,45.10
2022-10-13T03:34:59.395Z,48.10
2022-10-13T03:37:30.739Z,42.00
2022-10-13T03:39:58.381Z,48.20
2022-10-13T03:42:26.038Z,46.10
2022-10-13T03:44:56.308Z,45.20
2022-10-13T03:47:24.362Z,48.70
2022-10-13T03:49:54.779Z,52.00
2022-10-13T03:52:23.246Z,50.30
2022-10-13T03:54:51.011Z,51.40
2022-10-13T03:57:18.816Z,43.20
2022-10-13T03:59:46.843Z,51.40
2022-10-13T04:02:14.490Z,54.20
2022-10-13T04:04:42.307Z,50.80
2022-10-13T04:07:10.027Z,54.70
2022-10-13T04:09:37.707Z,48.10
2022-10-13T04:12:05.606Z,53.60
2022-10-13T04:14:33.511Z,47.50
2022-10-13T04:17:05.001Z,44.70
2022-10-13T04:19:32.663Z,44.80
2022-10-13T04:22:04.222Z,56.20
2022-10-13T04:24:31.960Z,53.70
2022-10-13T04:26:59.654Z,49.40
2022-10-13T04:29:27.297Z,45.90
2022-10-13T04:31:55.575Z,50.90
2022-10-13T04:34:23.215Z,59.50
2022-10-13T04:36:51.842Z,51.50
2022-10-13T04:39:19.758Z,53.90
2022-10-13T04:41:50.691Z,52.00
2022-10-13T04:44:18.354Z,54.10
2022-10-13T04:46:46.198Z,50.10
2022-10-13T04:49:15.252Z,52.30
2022-10-13T04:51:43.382Z,54.30
2022-10-13T04:54:11.185Z,53.80
2022-10-13T04:56:38.857Z,47.90
2022-10-13T04:59:06.579Z,51.20
2022-10-13T05:01:36.030Z,56.90
2022-10-13T05:04:07.077Z,57.80
2022-10-13T05:07:05.229Z,60.00
2022-10-13T05:09:29.731Z,60.20
2022-10-13T05:11:57.638Z,52.20
2022-10-13T05:14:25.350Z,49.10
2022-10-13T05:16:53.295Z,50.00
2022-10-13T05:19:20.993Z,56.30
2022-10-13T05:21:50.370Z,47.80
2022-10-13T05:24:20.646Z,47.30
2022-10-13T05:26:50.598Z,49.30
2022-10-13T05:29:18.886Z,63.10
2022-10-13T05:31:47.037Z,53.90
2022-10-13T05:34:14.744Z,46.80
2022-10-13T05:36:42.438Z,58.50
2022-10-13T05:39:10.381Z,50.60
2022-10-13T05:41:39.219Z,55.00
2022-10-13T05:44:10.863Z,54.30
2022-10-13T05:46:44.209Z,49.80
2022-10-13T05:49:12.280Z,53.20
2022-10-13T05:51:44.367Z,53.20
2022-10-13T05:54:22.893Z,48.30
2022-10-13T05:57:08.681Z,49.30
2022-10-13T05:59:43.380Z,49.50
2022-10-13T06:02:15.849Z,57.10
2022-10-13T06:04:50.462Z,50.00
2022-10-13T06:07:18.620Z,59.20
2022-10-13T06:09:46.771Z,52.40
2022-10-13T06:12:14.765Z,50.40
2022-10-13T06:14:43.317Z,51.50
2022-10-13T06:17:12.859Z,50.40
2022-10-13T06:19:45.378Z,42.10
2022-10-13T06:22:13.290Z,51.80
2022-10-13T06:24:40.956Z,52.80
2022-10-13T06:27:11.113Z,52.10
2022-10-13T06:29:39.557Z,64.30
2022-10-13T06:32:07.251Z,45.00
2022-10-13T06:34:35.122Z,53.10
2022-10-13T06:37:02.880Z,44.20
2022-10-13T06:39:30.560Z,46.60
2022-10-13T06:41:59.976Z,49.20
2022-10-13T06:44:32.420Z,48.90
2022-10-13T06:47:05.407Z,49.70
2022-10-13T06:49:33.375Z,51.20
2022-10-13T06:52:01.051Z,37.00
2022-10-13T06:54:29.066Z,42.40
2022-10-13T06:56:56.848Z,78.90
2022-10-13T06:59:26.371Z,39.60
2022-10-13T07:01:54.466Z,95.10
2022-10-13T07:04:23.036Z,105.40
2022-10-13T07:06:51.649Z,57.20
2022-10-13T07:09:20.526Z,56.50
2022-10-13T07:11:49.532Z,40.60
2022-10-13T07:14:17.343Z,32.10
2022-10-13T07:16:45.382Z,95.50
2022-10-13T07:19:13.078Z,41.90
2022-10-13T07:21:42.269Z,65.50
2022-10-13T07:24:11.673Z,101.10
2022-10-13T07:26:39.332Z,38.90
2022-10-13T07:29:07.968Z,88.40
2022-10-13T07:31:35.785Z,52.20
2022-10-13T07:34:05.030Z,57.30
2022-10-13T07:36:33.814Z,149.70
2022-10-13T07:39:05.659Z,48.00
2022-10-13T07:41:36.675Z,41.50
2022-10-13T07:44:04.694Z,37.60
2022-10-13T07:46:32.538Z,40.40
2022-10-13T07:49:00.631Z,31.20
2022-10-13T07:51:28.452Z,33.20
2022-10-13T07:53:56.223Z,35.10
2022-10-13T07:56:23.975Z,33.60
2022-10-13T07:58:51.819Z,39.20
2022-10-13T08:01:19.597Z,33.10
2022-10-13T08:03:50.158Z,33.80
2022-10-13T08:06:19.301Z,46.10
2022-10-13T08:08:48.023Z,32.40
2022-10-13T08:11:17.797Z,30.80
2022-10-13T08:13:50.891Z,38.80
2022-10-13T08:16:24.377Z,38.80
2022-10-13T08:18:53.005Z,72.10
2022-10-13T08:21:52.813Z,47.10
2022-10-13T08:24:16.770Z,50.10
2022-10-13T08:26:46.720Z,48.60
2022-10-13T08:29:24.094Z,29.30
2022-10-13T08:31:53.915Z,32.60
2022-10-13T08:34:23.692Z,27.30
2022-10-13T08:36:54.590Z,29.50
2022-10-13T08:39:24.563Z,29.90
2022-10-13T08:41:54.173Z,33.10
2022-10-13T08:47:47.415Z,23.80
2022-10-13T08:50:21.495Z,21.90
2022-10-13T08:53:03.234Z,24.90
2022-10-13T08:55:37.907Z,36.00
2022-10-13T08:58:34.399Z,21.30
2022-10-13T09:01:31.662Z,36.70
2022-10-13T09:04:41.676Z,39.10
2022-10-13T09:07:09.332Z,28.60
2022-10-13T09:09:38.128Z,43.90
2022-10-13T09:12:07.095Z,27.70
2022-10-13T09:14:37.861Z,22.70
2022-10-13T09:17:24.966Z,113.80
2022-10-13T09:20:02.623Z,74.50
2022-10-13T09:22:38.865Z,94.10
2022-10-13T09:25:06.483Z,33.00
2022-10-13T09:27:49.596Z,32.50
2022-10-13T09:33:09.066Z,58.20
2022-10-13T09:35:39.753Z,43.30
2022-10-13T09:38:25.014Z,36.60
2022-10-13T09:41:04.642Z,82.40
2022-10-13T09:43:45.519Z,45.50
2022-10-13T09:46:53.759Z,180.00
2022-10-13T09:49:39.205Z,79.00
2022-10-13T09:52:13.527Z,287.30
2022-10-13T09:54:50.131Z,79.90
2022-10-13T09:57:44.989Z,358.40
2022-10-13T10:00:26.889Z,198.10
2022-10-13T10:03:27.933Z,218.40
2022-10-13T10:06:07.269Z,171.30
2022-10-13T10:09:09.676Z,112.20
2022-10-13T10:11:47.645Z,164.50
2022-10-13T10:14:37.024Z,167.10
2022-10-13T10:17:27.695Z,29.90
2022-10-13T10:20:39.186Z,27.80
2022-10-13T10:23:32.776Z,17.00
2022-10-13T10:26:23.686Z,17.20
2022-10-13T10:29:14.702Z,21.00
2022-10-13T10:32:12.903Z,17.90
2022-10-13T10:35:00.203Z,13.30
2022-10-13T10:37:53.435Z,21.90
2022-10-13T10:41:16.417Z,841.30
2022-10-13T10:44:00.222Z,1630.80
2022-10-13T10:49:32.391Z,538.30
2022-10-13T10:52:05.615Z,114.10
2022-10-13T10:54:48.321Z,22.50
2022-10-13T10:57:59.566Z,23.30
2022-10-13T11:04:30.438Z,15.90
2022-10-13T11:06:58.690Z,38.30
2022-10-13T11:09:51.103Z,22.60
2022-10-13T11:12:18.878Z,15.40
2022-10-13T11:15:02.335Z,14.80
2022-10-13T11:17:32.646Z,15.40
2022-10-13T11:20:00.754Z,16.80
2022-10-13T11:22:30.341Z,53.80
2022-10-13T11:25:24.068Z,35.10
2022-10-13T11:27:51.803Z,17.10
2022-10-13T11:30:47.379Z,30.80
2022-10-13T11:33:40.362Z,24.90
2022-10-13T11:36:31.396Z,13.60
2022-10-13T11:39:09.900Z,8.70
2022-10-13T11:42:34.112Z,12.80
2022-10-13T11:45:14.718Z,11.50
2022-10-13T11:48:28.452Z,10.40
2022-10-13T11:51:31.138Z,35.60
2022-10-13T11:54:32.867Z,528.10
2022-10-13T11:57:00.757Z,260.70
2022-10-13T11:59:39.625Z,30.90
2022-10-13T12:02:10.342Z,16.00
2022-10-13T12:04:45.671Z,13.40
2022-10-13T12:07:16.137Z,14.20
2022-10-13T12:09:54.934Z,10.70
2022-10-13T12:12:24.807Z,16.00
2022-10-13T12:14:56.918Z,15.40
2022-10-13T12:17:26.718Z,13.00
2022-10-13T12:20:01.867Z,9.50
2022-10-13T12:22:30.154Z,12.30
2022-10-13T12:25:05.137Z,12.20
2022-10-13T12:27:49.164Z,12.30
2022-10-13T12:30:28.668Z,13.60
2022-10-13T12:33:00.602Z,13.10
2022-10-13T12:35:32.406Z,24.00
2022-10-13T12:38:13.505Z,25.30
2022-10-13T12:40:41.338Z,26.60
2022-10-13T12:43:16.676Z,29.50
2022-10-13T12:45:46.707Z,17.40
2022-10-13T12:48:33.028Z,121.00
2022-10-13T12:51:22.603Z,29.60
2022-10-13T12:53:50.548Z,361.20
2022-10-13T12:56:27.600Z,111.90
2022-10-13T12:58:56.519Z,14.30
2022-10-13T13:01:35.556Z,83.30
2022-10-13T13:04:22.877Z,30.00
2022-10-13T13:07:06.519Z,17.70
2022-10-13T13:09:39.060Z,16.90
2022-10-13T13:12:18.455Z,565.90
2022-10-13T13:14:51.047Z,416.70
2022-10-13T13:17:32.986Z,284.80
2022-10-13T13:20:30.978Z,136.50
2022-10-13T13:22:59.698Z,197.10
2022-10-13T13:25:27.799Z,212.00
2022-10-13T13:27:55.567Z,317.10
2022-10-13T13:30:24.705Z,107.50
2022-10-13T13:32:52.385Z,44.90
2022-10-13T13:35:20.303Z,159.40
2022-10-13T13:37:50.895Z,31.40
2022-10-13T13:40:24.925Z,26.10
2022-10-13T13:42:53.773Z,14.90
2022-10-13T13:45:24.921Z,15.30
2022-10-13T13:47:57.992Z,21.10
2022-10-13T13:50:35.038Z,13.80
2022-10-13T13:53:04.249Z,19.80
2022-10-13T13:55:32.485Z,13.70
2022-10-13T13:58:01.603Z,12.80
2022-10-13T14:00:29.442Z,19.90
2022-10-13T14:02:57.649Z,47.80
2022-10-13T14:05:25.670Z,200.40
2022-10-13T14:07:57.618Z,449.70
2022-10-13T14:10:26.425Z,1020.50
2022-10-13T14:12:54.123Z,1191.20
2022-10-13T14:15:25.781Z,376.20
2022-10-13T14:17:57.148Z,113.20
2022-10-13T14:20:24.947Z,68.90
2022-10-13T14:22:52.692Z,34.80
2022-10-13T14:25:20.833Z,31.40
2022-10-13T14:27:48.569Z,61.40
2022-10-13T14:30:16.608Z,29.20
2022-10-13T14:32:44.389Z,47.40
2022-10-13T14:35:12.125Z,25.20
2022-10-13T14:37:40.092Z,20.00
2022-10-13T14:40:09.138Z,17.20
2022-10-13T14:42:38.922Z,11.50
2022-10-13T14:45:08.237Z,12.60
2022-10-13T14:47:35.870Z,12.50
2022-10-13T14:50:03.917Z,10.70
2022-10-13T14:52:31.665Z,18.10
2022-10-13T14:54:59.610Z,14.80
2022-10-13T14:57:27.469Z,18.20
2022-10-13T14:59:59.351Z,16.20
2022-10-13T15:02:29.923Z,13.20
2022-10-13T15:04:57.953Z,15.70
2022-10-13T15:07:25.833Z,29.90
2022-10-13T15:10:04.787Z,192.70
2022-10-13T15:12:34.164Z,47.00
2022-10-13T15:15:02.777Z,40.40
2022-10-13T15:17:33.175Z,16.20
2022-10-13T15:20:00.940Z,16.10
2022-10-13T15:22:28.626Z,75.40
2022-10-13T15:24:56.687Z,16.60
2022-10-13T15:27:24.441Z,14.10
2022-10-13T15:29:52.179Z,12.90
2022-10-13T15:32:20.411Z,135.90
2022-10-13T15:34:52.414Z,183.10
2022-10-13T15:37:20.187Z,13.60
2022-10-13T15:39:51.994Z,21.70
2022-10-13T15:42:22.683Z,16.20
2022-10-13T15:45:08.629Z,20.40
2022-10-13T15:47:38.076Z,13.80
2022-10-13T15:50:06.751Z,19.00
2022-10-13T15:52:40.368Z,16.90
2022-10-13T15:55:11.370Z,13.50
2022-10-13T15:57:39.153Z,17.80
2022-10-13T16:00:09.651Z,15.10
2022-10-13T16:02:41.586Z,12.10
2022-10-13T16:05:12.829Z,41.90
2022-10-13T16:07:41.502Z,52.90
2022-10-13T16:10:12.385Z,13.70
2022-10-13T16:12:45.464Z,19.80
2022-10-13T16:15:18.063Z,10.60
2022-10-13T16:17:46.289Z,12.70
2022-10-13T16:20:14.545Z,17.60
2022-10-13T16:22:42.474Z,21.10
2022-10-13T16:25:11.020Z,11.30
2022-10-13T16:27:43.886Z,19.10
2022-10-13T16:30:13.160Z,31.20
2022-10-13T16:32:41.234Z,15.00
2022-10-13T16:35:09.318Z,26.80
2022-10-13T16:37:37.213Z,26.50
2022-10-13T16:40:05.746Z,19.10
2022-10-13T16:42:33.423Z,16.10
2022-10-13T16:45:01.232Z,25.60
2022-10-13T16:47:30.035Z,21.80
2022-10-13T16:49:57.723Z,18.20
2022-10-13T16:52:25.425Z,19.80
2022-10-13T16:54:53.166Z,20.50
2022-10-13T16:57:21.107Z,20.00
2022-10-13T16:59:50.049Z,23.80
2022-10-13T17:02:17.698Z,26.00
2022-10-13T17:04:45.375Z,17.30
2022-10-13T17:07:13.191Z,30.90
2022-10-13T17:09:40.871Z,19.60
2022-10-13T17:12:08.724Z,18.80
2022-10-13T17:14:36.582Z,16.40
2022-10-13T17:17:04.594Z,23.40
2022-10-13T17:19:32.547Z,20.80
2022-10-13T17:22:00.490Z,25.10
2022-10-13T17:24:29.813Z,22.40
2022-10-13T17:26:57.547Z,46.60
2022-10-13T17:29:25.222Z,58.30
2022-10-13T17:31:54.427Z,34.40
2022-10-13T17:34:22.897Z,23.60
2022-10-13T17:36:52.525Z,17.30
2022-10-13T17:39:20.433Z,18.80
2022-10-13T17:41:48.212Z,21.70
2022-10-13T17:44:20.454Z,20.50
2022-10-13T17:46:49.943Z,23.10
2022-10-13T17:49:18.141Z,18.10
2022-10-13T17:51:46.574Z,20.50
2022-10-13T17:54:16.402Z,24.20
2022-10-13T17:56:47.583Z,23.80
2022-10-13T17:59:17.598Z,22.10
2022-10-13T18:01:45.670Z,27.60
2022-10-13T18:04:18.917Z,28.80
2022-10-13T18:06:47.105Z,38.60
2022-10-13T18:09:23.124Z,21.50
2022-10-13T18:11:53.727Z,29.50
2022-10-13T18:14:24.858Z,26.40
2022-10-13T18:16:53.850Z,19.80
2022-10-13T18:19:22.150Z,23.40
2022-10-13T18:21:50.029Z,24.80
2022-10-13T18:24:17.735Z,25.90
2022-10-13T18:26:46.203Z,24.40
2022-10-13T18:29:14.403Z,24.20
2022-10-13T18:31:43.578Z,25.90
2022-10-13T18:34:15.508Z,31.20
2022-10-13T18:36:47.256Z,76.80
2022-10-13T18:39:22.269Z,19.70
2022-10-13T18:41:51.974Z,23.90
2022-10-13T18:44:21.102Z,24.70
2022-10-13T18:46:51.394Z,26.80
2022-10-13T18:49:30.752Z,26.50
2022-10-13T18:52:01.226Z,32.10
2022-10-13T18:54:30.148Z,25.20
2022-10-13T18:56:58.138Z,26.00
2022-10-13T18:59:25.974Z,28.00
2022-10-13T19:01:53.683Z,24.40
2022-10-13T19:04:22.761Z,35.90
2022-10-13T19:06:51.592Z,24.50
2022-10-13T19:09:21.480Z,28.60
2022-10-13T19:11:49.264Z,53.30
2022-10-13T19:14:17.264Z,39.80
2022-10-13T19:16:45.166Z,42.50
2022-10-13T19:19:13.309Z,27.50
2022-10-13T19:21:41.325Z,29.90
2022-10-13T19:24:10.416Z,33.30
2022-10-13T19:26:39.317Z,39.60
2022-10-13T19:29:12.006Z,28.30
2022-10-13T19:31:41.678Z,28.80
2022-10-13T19:34:12.301Z,34.20
2022-10-13T19:36:46.395Z,33.40
2022-10-13T19:39:17.686Z,36.40
2022-10-13T19:41:46.871Z,33.20
2022-10-13T19:44:17.071Z,32.80
2022-10-13T19:46:46.587Z,33.30
2022-10-13T19:49:17.797Z,33.20
2022-10-13T19:51:47.398Z,34.10
2022-10-13T19:54:17.737Z,38.10
2022-10-13T19:56:47.946Z,35.30
2022-10-13T19:59:17.617Z,33.40
2022-10-13T20:01:45.804Z,36.00
2022-10-13T20:04:15.917Z,42.00
2022-10-13T20:06:44.866Z,39.30
2022-10-13T20:09:12.643Z,49.10
2022-10-13T20:11:40.822Z,94.80
2022-10-13T20:14:08.522Z,43.50
2022-10-13T20:16:37.831Z,38.20
2022-10-13T20:19:06.526Z,36.30
2022-10-13T20:21:34.271Z,38.20
2022-10-13T20:24:01.921Z,42.50
2022-10-13T20:26:29.696Z,54.40
2022-10-13T20:28:58.252Z,123.00
2022-10-13T20:31:26.519Z,46.20
2022-10-13T20:33:57.365Z,38.70
2022-10-13T20:36:28.074Z,41.60
2022-10-13T20:38:55.752Z,45.30
2022-10-13T20:41:29.290Z,45.10
2022-10-13T20:44:01.214Z,45.80
2022-10-13T20:46:31.161Z,46.70
2022-10-13T20:49:10.358Z,43.30
2022-10-13T20:51:39.275Z,47.80
2022-10-13T20:54:08.080Z,48.30
2022-10-13T20:56:35.952Z,134.50
2022-10-13T20:59:10.875Z,48.80
2022-10-13T21:01:38.946Z,47.30
2022-10-13T21:04:08.091Z,49.50
2022-10-13T21:06:36.103Z,43.00
2022-10-13T21:09:06.309Z,42.30
2022-10-13T21:11:35.509Z,43.90
2022-10-13T21:14:06.724Z,142.00
2022-10-13T21:16:36.716Z,152.40
2022-10-13T21:19:08.159Z,44.90
2022-10-13T21:21:36.373Z,45.10
2022-10-13T21:24:07.023Z,103.90
2022-10-13T21:26:36.246Z,43.10
2022-10-13T21:29:05.198Z,45.90
2022-10-13T21:31:35.673Z,43.20
2022-10-13T21:34:04.110Z,43.20
2022-10-13T21:36:33.768Z,46.70
2022-10-13T21:39:05.681Z,45.00
2022-10-13T21:41:34.231Z,47.60
2022-10-13T21:44:02.987Z,44.90
2022-10-13T21:46:34.801Z,47.80
2022-10-13T21:49:05.706Z,55.00
2022-10-13T21:51:37.871Z,67.10
2022-10-13T21:54:11.748Z,47.30
2022-10-13T21:56:40.886Z,48.20
2022-10-13T21:59:12.665Z,42.40
2022-10-13T22:01:41.165Z,44.00
2022-10-13T22:04:17.026Z,48.80
2022-10-13T22:06:45.158Z,43.40
2022-10-13T22:09:14.188Z,50.70
2022-10-13T22:11:43.235Z,56.50
2022-10-13T22:14:14.191Z,50.80
2022-10-13T22:16:46.318Z,44.90
2022-10-13T22:19:16.451Z,45.40
2022-10-13T22:21:49.336Z,51.60
2022-10-13T22:26:49.329Z,44.10
2022-10-13T22:29:20.768Z,53.50
2022-10-13T22:31:50.885Z,51.10
2022-10-13T22:34:18.679Z,50.70
2022-10-13T22:36:46.391Z,93.50
2022-10-13T22:39:15.386Z,49.60
2022-10-13T22:41:43.482Z,47.50
2022-10-13T22:44:11.498Z,53.10
2022-10-13T22:46:40.023Z,76.30
2022-10-13T22:49:13.464Z,51.40
2022-10-13T22:51:41.505Z,59.10
2022-10-13T22:54:09.959Z,57.80
2022-10-13T22:56:37.784Z,62.80
2022-10-13T22:59:08.207Z,95.30
2022-10-13T23:01:36.477Z,68.10
2022-10-13T23:04:04.430Z,60.90
2022-10-13T23:06:34.324Z,147.90
2022-10-13T23:09:06.377Z,53.70
2022-10-13T23:11:34.767Z,61.60
2022-10-13T23:14:04.579Z,58.80
2022-10-13T23:16:32.892Z,53.80
2022-10-13T23:19:01.688Z,52.80
2022-10-13T23:21:30.508Z,55.50
2022-10-13T23:24:02.032Z,53.60
2022-10-13T23:26:30.976Z,60.90
2022-10-13T23:28:59.590Z,56.20
2022-10-13T23:31:28.167Z,62.60
2022-10-13T23:33:56.849Z,61.40
2022-10-13T23:36:28.066Z,52.10
2022-10-13T23:39:04.839Z,56.50
2022-10-13T23:41:34.362Z,58.90
2022-10-13T23:44:02.327Z,66.00
2022-10-13T23:46:30.697Z,62.00
2022-10-13T23:48:58.418Z,55.50
2022-10-13T23:51:26.268Z,59.90
2022-10-13T23:53:55.292Z,55.40
2022-10-13T23:56:23.901Z,59.90
2022-10-13T23:58:51.691Z,60.10
